sensor_id;sensor_type;location;lat;lon;timestamp;temperature;humidity
11569;DHT22;5840;46.894;15.542;2024-02-04T00:01:54;4.00;99.90
11569;DHT22;5840;46.894;15.542;2024-02-04T00:04:21;4.00;99.90
11569;DHT22;5840;46.894;15.542;2024-02-04T00:06:49;3.90;99.90
11569;DHT22;5840;46.894;15.542;2024-02-04T00:09:15;3.80;99.90
11569;DHT22;5840;46.894;15.542;2024-02-04T00:11:41;3.70;99.90
11569;DHT22;5840;46.894;15.542;2024-02-04T00:14:09;3.70;99.90
11569;DHT22;5840;46.894;15.542;2024-02-04T00:16:36;3.60;99.90
11569;DHT22;5840;46.894;15.542;2024-02-04T00:24:07;3.70;99.90
11569;DHT22;5840;46.894;15.542;2024-02-04T00:26:33;3.70;99.90
11569;DHT22;5840;46.894;15.542;2024-02-04T00:28:59;3.80;99.90
11569;DHT22;5840;46.894;15.542;2024-02-04T00:31:27;3.80;99.90
11569;DHT22;5840;46.894;15.542;2024-02-04T00:33:58;3.80;99.90
11569;DHT22;5840;46.894;15.542;2024-02-04T00:36:26;3.80;99.90
11569;DHT22;5840;46.894;15.542;2024-02-04T00:38:53;3.80;99.90
11569;DHT22;5840;46.894;15.542;2024-02-04T00:43:57;3.70;99.90
11569;DHT22;5840;46.894;15.542;2024-02-04T00:46:24;3.70;99.90
11569;DHT22;5840;46.894;15.542;2024-02-04T00:48:50;3.70;99.90
11569;DHT22;5840;46.894;15.542;2024-02-04T00:51:16;3.70;99.90
11569;DHT22;5840;46.894;15.542;2024-02-04T00:53:43;3.60;99.90
11569;DHT22;5840;46.894;15.542;2024-02-04T00:56:09;3.70;99.90
11569;DHT22;5840;46.894;15.542;2024-02-04T00:58:36;3.70;99.90
11569;DHT22;5840;46.894;15.542;2024-02-04T01:01:04;3.70;99.90
11569;DHT22;5840;46.894;15.542;2024-02-04T01:10:54;3.70;99.90
11569;DHT22;5840;46.894;15.542;2024-02-04T01:13:20;3.60;99.90
11569;DHT22;5840;46.894;15.542;2024-02-04T01:15:47;3.50;99.90
11569;DHT22;5840;46.894;15.542;2024-02-04T01:18:13;3.50;99.90
11569;DHT22;5840;46.894;15.542;2024-02-04T01:20:39;3.40;99.90
11569;DHT22;5840;46.894;15.542;2024-02-04T01:23:05;3.40;99.90
11569;DHT22;5840;46.894;15.542;2024-02-04T01:25:32;3.30;99.90
11569;DHT22;5840;46.894;15.542;2024-02-04T01:27:59;3.30;99.90
11569;DHT22;5840;46.894;15.542;2024-02-04T01:37:49;3.30;99.90
11569;DHT22;5840;46.894;15.542;2024-02-04T01:40:15;3.30;99.90
11569;DHT22;5840;46.894;15.542;2024-02-04T01:42:42;3.30;99.90
11569;DHT22;5840;46.894;15.542;2024-02-04T01:45:09;3.30;99.90
11569;DHT22;5840;46.894;15.542;2024-02-04T01:47:35;3.30;99.90
11569;DHT22;5840;46.894;15.542;2024-02-04T01:50:03;3.30;99.90
11569;DHT22;5840;46.894;15.542;2024-02-04T01:52:30;3.30;99.90
11569;DHT22;5840;46.894;15.542;2024-02-04T01:54:59;3.30;99.90
11569;DHT22;5840;46.894;15.542;2024-02-04T02:04:56;3.20;99.90
11569;DHT22;5840;46.894;15.542;2024-02-04T02:07:23;3.20;99.90
11569;DHT22;5840;46.894;15.542;2024-02-04T02:09:52;3.30;99.90
11569;DHT22;5840;46.894;15.542;2024-02-04T02:12:22;3.30;99.90
11569;DHT22;5840;46.894;15.542;2024-02-04T02:14:56;3.40;99.90
11569;DHT22;5840;46.894;15.542;2024-02-04T02:17:29;3.40;99.90
11569;DHT22;5840;46.894;15.542;2024-02-04T02:20:02;3.40;99.90
11569;DHT22;5840;46.894;15.542;2024-02-04T02:30:46;3.40;99.90
11569;DHT22;5840;46.894;15.542;2024-02-04T02:33:13;3.30;99.90
11569;DHT22;5840;46.894;15.542;2024-02-04T02:35:39;3.30;99.90
11569;DHT22;5840;46.894;15.542;2024-02-04T02:38:14;3.30;99.90
11569;DHT22;5840;46.894;15.542;2024-02-04T02:40:47;3.30;99.90
11569;DHT22;5840;46.894;15.542;2024-02-04T02:43:13;3.30;99.90
11569;DHT22;5840;46.894;15.542;2024-02-04T02:45:42;3.30;99.90
11569;DHT22;5840;46.894;15.542;2024-02-04T02:48:10;3.40;99.90
11569;DHT22;5840;46.894;15.542;2024-02-04T02:58:01;3.40;99.90
11569;DHT22;5840;46.894;15.542;2024-02-04T03:00:27;3.40;99.90
11569;DHT22;5840;46.894;15.542;2024-02-04T03:02:53;3.30;99.90
11569;DHT22;5840;46.894;15.542;2024-02-04T03:05:20;3.10;99.90
11569;DHT22;5840;46.894;15.542;2024-02-04T03:07:46;3.00;99.90
11569;DHT22;5840;46.894;15.542;2024-02-04T03:10:12;3.00;99.90
11569;DHT22;5840;46.894;15.542;2024-02-04T03:12:38;2.90;99.90
11569;DHT22;5840;46.894;15.542;2024-02-04T03:15:06;2.90;99.90
11569;DHT22;5840;46.894;15.542;2024-02-04T03:22:36;2.80;99.90
11569;DHT22;5840;46.894;15.542;2024-02-04T03:25:03;2.50;99.90
11569;DHT22;5840;46.894;15.542;2024-02-04T03:27:29;2.50;99.90
11569;DHT22;5840;46.894;15.542;2024-02-04T03:29:56;2.40;99.90
11569;DHT22;5840;46.894;15.542;2024-02-04T03:32:22;2.30;99.90
11569;DHT22;5840;46.894;15.542;2024-02-04T03:34:48;2.20;99.90
11569;DHT22;5840;46.894;15.542;2024-02-04T03:37:14;2.10;99.90
11569;DHT22;5840;46.894;15.542;2024-02-04T03:39:41;2.10;99.90
11569;DHT22;5840;46.894;15.542;2024-02-04T03:49:36;2.20;99.90
11569;DHT22;5840;46.894;15.542;2024-02-04T03:52:03;2.10;99.90
11569;DHT22;5840;46.894;15.542;2024-02-04T03:54:29;2.10;99.90
11569;DHT22;5840;46.894;15.542;2024-02-04T03:56:56;2.00;99.90
11569;DHT22;5840;46.894;15.542;2024-02-04T03:59:22;2.00;99.90
11569;DHT22;5840;46.894;15.542;2024-02-04T04:01:48;2.00;99.90
11569;DHT22;5840;46.894;15.542;2024-02-04T04:04:14;2.00;99.90
11569;DHT22;5840;46.894;15.542;2024-02-04T04:06:42;2.00;99.90
11569;DHT22;5840;46.894;15.542;2024-02-04T04:16:32;2.00;99.90
11569;DHT22;5840;46.894;15.542;2024-02-04T04:18:59;1.90;99.90
11569;DHT22;5840;46.894;15.542;2024-02-04T04:21:25;2.00;99.90
11569;DHT22;5840;46.894;15.542;2024-02-04T04:23:51;2.00;99.90
11569;DHT22;5840;46.894;15.542;2024-02-04T04:26:17;2.00;99.90
11569;DHT22;5840;46.894;15.542;2024-02-04T04:28:44;2.00;99.90
11569;DHT22;5840;46.894;15.542;2024-02-04T04:31:10;2.00;99.90
11569;DHT22;5840;46.894;15.542;2024-02-04T04:33:37;2.00;99.90
11569;DHT22;5840;46.894;15.542;2024-02-04T04:41:07;2.10;99.90
11569;DHT22;5840;46.894;15.542;2024-02-04T04:43:36;2.10;99.90
11569;DHT22;5840;46.894;15.542;2024-02-04T04:46:02;2.10;99.90
11569;DHT22;5840;46.894;15.542;2024-02-04T04:48:28;2.10;99.90
11569;DHT22;5840;46.894;15.542;2024-02-04T04:50:54;2.10;99.90
11569;DHT22;5840;46.894;15.542;2024-02-04T04:53:21;2.10;99.90
11569;DHT22;5840;46.894;15.542;2024-02-04T04:55:47;2.10;99.90
11569;DHT22;5840;46.894;15.542;2024-02-04T04:58:14;1.90;99.90
11569;DHT22;5840;46.894;15.542;2024-02-04T05:05:44;1.80;99.90
11569;DHT22;5840;46.894;15.542;2024-02-04T05:08:12;1.80;99.90
11569;DHT22;5840;46.894;15.542;2024-02-04T05:10:39;1.80;99.90
11569;DHT22;5840;46.894;15.542;2024-02-04T05:13:05;1.80;99.90
11569;DHT22;5840;46.894;15.542;2024-02-04T05:15:31;1.70;99.90
11569;DHT22;5840;46.894;15.542;2024-02-04T05:17:59;1.60;99.90
11569;DHT22;5840;46.894;15.542;2024-02-04T05:20:25;1.60;99.90
11569;DHT22;5840;46.894;15.542;2024-02-04T05:22:52;1.60;99.90
11569;DHT22;5840;46.894;15.542;2024-02-04T05:32:47;1.90;99.90
11569;DHT22;5840;46.894;15.542;2024-02-04T05:35:13;1.90;99.90
11569;DHT22;5840;46.894;15.542;2024-02-04T05:37:39;1.90;99.90
11569;DHT22;5840;46.894;15.542;2024-02-04T05:40:07;1.90;99.90
11569;DHT22;5840;46.894;15.542;2024-02-04T05:42:33;1.90;99.90
11569;DHT22;5840;46.894;15.542;2024-02-04T05:45:00;2.00;99.90
11569;DHT22;5840;46.894;15.542;2024-02-04T05:47:27;2.10;99.90
11569;DHT22;5840;46.894;15.542;2024-02-04T05:49:54;2.10;99.90
11569;DHT22;5840;46.894;15.542;2024-02-04T05:59:44;2.10;99.90
11569;DHT22;5840;46.894;15.542;2024-02-04T06:02:12;2.00;99.90
11569;DHT22;5840;46.894;15.542;2024-02-04T06:04:38;1.90;99.90
11569;DHT22;5840;46.894;15.542;2024-02-04T06:07:05;1.80;99.90
11569;DHT22;5840;46.894;15.542;2024-02-04T06:09:32;1.90;99.90
11569;DHT22;5840;46.894;15.542;2024-02-04T06:11:58;1.90;99.90
11569;DHT22;5840;46.894;15.542;2024-02-04T06:14:24;1.80;99.90
11569;DHT22;5840;46.894;15.542;2024-02-04T06:16:51;1.90;99.90
11569;DHT22;5840;46.894;15.542;2024-02-04T06:26:45;1.70;99.90
11569;DHT22;5840;46.894;15.542;2024-02-04T06:29:12;1.70;99.90
11569;DHT22;5840;46.894;15.542;2024-02-04T06:31:38;1.70;99.90
11569;DHT22;5840;46.894;15.542;2024-02-04T06:34:04;1.80;99.90
11569;DHT22;5840;46.894;15.542;2024-02-04T06:36:30;1.90;99.90
11569;DHT22;5840;46.894;15.542;2024-02-04T06:38:57;2.00;99.90
11569;DHT22;5840;46.894;15.542;2024-02-04T06:41:23;2.00;99.90
11569;DHT22;5840;46.894;15.542;2024-02-04T06:43:50;1.90;99.90
11569;DHT22;5840;46.894;15.542;2024-02-04T06:51:20;2.00;99.90
11569;DHT22;5840;46.894;15.542;2024-02-04T06:53:46;2.00;99.90
11569;DHT22;5840;46.894;15.542;2024-02-04T06:56:12;1.90;99.90
11569;DHT22;5840;46.894;15.542;2024-02-04T06:58:38;1.90;99.90
11569;DHT22;5840;46.894;15.542;2024-02-04T07:01:05;1.90;99.90
11569;DHT22;5840;46.894;15.542;2024-02-04T07:03:31;1.90;99.90
11569;DHT22;5840;46.894;15.542;2024-02-04T07:05:58;2.10;99.90
11569;DHT22;5840;46.894;15.542;2024-02-04T07:08:25;2.40;99.90
11569;DHT22;5840;46.894;15.542;2024-02-04T07:18:19;3.30;99.90
11569;DHT22;5840;46.894;15.542;2024-02-04T07:20:47;3.80;99.90
11569;DHT22;5840;46.894;15.542;2024-02-04T07:23:13;4.00;99.90
11569;DHT22;5840;46.894;15.542;2024-02-04T07:25:40;4.20;99.90
11569;DHT22;5840;46.894;15.542;2024-02-04T07:28:06;4.20;99.90
11569;DHT22;5840;46.894;15.542;2024-02-04T07:30:32;4.40;99.90
11569;DHT22;5840;46.894;15.542;2024-02-04T07:32:58;4.50;99.90
11569;DHT22;5840;46.894;15.542;2024-02-04T07:35:25;4.50;99.90
11569;DHT22;5840;46.894;15.542;2024-02-04T07:45:21;4.00;99.90
11569;DHT22;5840;46.894;15.542;2024-02-04T07:47:47;3.80;99.90
11569;DHT22;5840;46.894;15.542;2024-02-04T07:50:13;3.70;99.90
11569;DHT22;5840;46.894;15.542;2024-02-04T07:52:39;3.70;99.90
11569;DHT22;5840;46.894;15.542;2024-02-04T07:55:06;3.60;99.90
11569;DHT22;5840;46.894;15.542;2024-02-04T07:57:32;3.60;99.90
11569;DHT22;5840;46.894;15.542;2024-02-04T07:59:59;3.60;99.90
11569;DHT22;5840;46.894;15.542;2024-02-04T08:02:26;3.50;99.90
11569;DHT22;5840;46.894;15.542;2024-02-04T08:12:21;3.70;99.90
11569;DHT22;5840;46.894;15.542;2024-02-04T08:14:47;3.80;99.90
11569;DHT22;5840;46.894;15.542;2024-02-04T08:17:13;3.90;99.90
11569;DHT22;5840;46.894;15.542;2024-02-04T08:19:39;4.00;99.90
11569;DHT22;5840;46.894;15.542;2024-02-04T08:22:06;4.20;99.90
11569;DHT22;5840;46.894;15.542;2024-02-04T08:24:32;4.50;99.90
11569;DHT22;5840;46.894;15.542;2024-02-04T08:26:59;4.90;99.90
11569;DHT22;5840;46.894;15.542;2024-02-04T08:29:26;5.20;99.90
11569;DHT22;5840;46.894;15.542;2024-02-04T08:39:20;5.90;99.90
11569;DHT22;5840;46.894;15.542;2024-02-04T08:41:47;6.20;99.90
11569;DHT22;5840;46.894;15.542;2024-02-04T08:44:14;6.50;99.90
11569;DHT22;5840;46.894;15.542;2024-02-04T08:46:40;6.60;99.90
11569;DHT22;5840;46.894;15.542;2024-02-04T08:49:06;6.70;99.90
11569;DHT22;5840;46.894;15.542;2024-02-04T08:51:32;7.00;99.90
11569;DHT22;5840;46.894;15.542;2024-02-04T08:53:59;7.20;99.90
11569;DHT22;5840;46.894;15.542;2024-02-04T08:56:26;7.20;99.90
11569;DHT22;5840;46.894;15.542;2024-02-04T09:03:51;6.90;99.90
11569;DHT22;5840;46.894;15.542;2024-02-04T09:06:17;7.50;99.90
11569;DHT22;5840;46.894;15.542;2024-02-04T09:08:43;7.90;99.90
11569;DHT22;5840;46.894;15.542;2024-02-04T09:11:09;8.30;99.90
11569;DHT22;5840;46.894;15.542;2024-02-04T09:13:36;8.90;99.90
11569;DHT22;5840;46.894;15.542;2024-02-04T09:16:02;9.50;99.90
11569;DHT22;5840;46.894;15.542;2024-02-04T09:18:30;9.60;99.90
11569;DHT22;5840;46.894;15.542;2024-02-04T09:20:57;9.50;99.90
11569;DHT22;5840;46.894;15.542;2024-02-04T09:30:52;9.50;99.90
11569;DHT22;5840;46.894;15.542;2024-02-04T09:33:18;9.50;99.90
11569;DHT22;5840;46.894;15.542;2024-02-04T09:35:45;9.90;99.90
11569;DHT22;5840;46.894;15.542;2024-02-04T09:38:12;10.10;99.90
11569;DHT22;5840;46.894;15.542;2024-02-04T09:40:39;10.20;99.90
11569;DHT22;5840;46.894;15.542;2024-02-04T09:43:05;10.20;99.90
11569;DHT22;5840;46.894;15.542;2024-02-04T09:45:32;10.20;99.90
11569;DHT22;5840;46.894;15.542;2024-02-04T09:48:01;10.20;99.90
11569;DHT22;5840;46.894;15.542;2024-02-04T09:57:57;10.40;99.90
11569;DHT22;5840;46.894;15.542;2024-02-04T10:00:23;10.40;99.90
11569;DHT22;5840;46.894;15.542;2024-02-04T10:02:53;10.70;99.90
11569;DHT22;5840;46.894;15.542;2024-02-04T10:05:21;10.90;99.90
11569;DHT22;5840;46.894;15.542;2024-02-04T10:07:48;10.90;99.90
11569;DHT22;5840;46.894;15.542;2024-02-04T10:10:14;10.90;99.90
11569;DHT22;5840;46.894;15.542;2024-02-04T10:12:40;11.20;99.90
11569;DHT22;5840;46.894;15.542;2024-02-04T10:15:10;11.00;99.90
11569;DHT22;5840;46.894;15.542;2024-02-04T10:22:39;10.60;99.90
11569;DHT22;5840;46.894;15.542;2024-02-04T10:25:06;10.30;99.90
11569;DHT22;5840;46.894;15.542;2024-02-04T10:27:33;10.30;99.90
11569;DHT22;5840;46.894;15.542;2024-02-04T10:29:59;10.70;99.90
11569;DHT22;5840;46.894;15.542;2024-02-04T10:32:26;11.10;99.90
11569;DHT22;5840;46.894;15.542;2024-02-04T10:34:52;11.70;99.90
11569;DHT22;5840;46.894;15.542;2024-02-04T10:37:18;12.40;99.90
11569;DHT22;5840;46.894;15.542;2024-02-04T10:39:45;13.10;99.90
11569;DHT22;5840;46.894;15.542;2024-02-04T10:47:17;13.80;99.70
11569;DHT22;5840;46.894;15.542;2024-02-04T10:49:50;13.50;98.40
11569;DHT22;5840;46.894;15.542;2024-02-04T10:52:19;13.50;99.20
11569;DHT22;5840;46.894;15.542;2024-02-04T10:54:46;13.60;99.50
11569;DHT22;5840;46.894;15.542;2024-02-04T10:57:19;13.40;99.90
11569;DHT22;5840;46.894;15.542;2024-02-04T10:59:47;13.60;99.00
11569;DHT22;5840;46.894;15.542;2024-02-04T11:02:15;13.90;97.50
11569;DHT22;5840;46.894;15.542;2024-02-04T11:04:43;14.20;97.50
11569;DHT22;5840;46.894;15.542;2024-02-04T11:12:15;14.20;97.40
11569;DHT22;5840;46.894;15.542;2024-02-04T11:14:46;14.40;96.80
11569;DHT22;5840;46.894;15.542;2024-02-04T11:17:39;14.50;96.30
11569;DHT22;5840;46.894;15.542;2024-02-04T11:20:24;14.60;96.20
11569;DHT22;5840;46.894;15.542;2024-02-04T11:23:06;14.80;96.50
11569;DHT22;5840;46.894;15.542;2024-02-04T11:25:44;14.90;96.70
11569;DHT22;5840;46.894;15.542;2024-02-04T11:28:12;15.40;96.90
11569;DHT22;5840;46.894;15.542;2024-02-04T11:34:20;15.80;96.80
11569;DHT22;5840;46.894;15.542;2024-02-04T11:36:46;16.40;95.60
11569;DHT22;5840;46.894;15.542;2024-02-04T11:39:13;16.60;95.30
11569;DHT22;5840;46.894;15.542;2024-02-04T11:41:45;16.70;95.10
11569;DHT22;5840;46.894;15.542;2024-02-04T11:44:12;16.90;94.90
11569;DHT22;5840;46.894;15.542;2024-02-04T11:46:38;16.90;94.40
11569;DHT22;5840;46.894;15.542;2024-02-04T11:49:14;16.90;94.50
11569;DHT22;5840;46.894;15.542;2024-02-04T11:51:45;16.90;94.40
11569;DHT22;5840;46.894;15.542;2024-02-04T12:01:35;17.20;93.00
11569;DHT22;5840;46.894;15.542;2024-02-04T12:04:09;17.20;93.80
11569;DHT22;5840;46.894;15.542;2024-02-04T12:06:35;17.00;92.80
11569;DHT22;5840;46.894;15.542;2024-02-04T12:09:02;17.00;92.90
11569;DHT22;5840;46.894;15.542;2024-02-04T12:11:29;16.80;93.60
11569;DHT22;5840;46.894;15.542;2024-02-04T12:13:57;16.70;92.20
11569;DHT22;5840;46.894;15.542;2024-02-04T12:16:25;16.80;93.60
11569;DHT22;5840;46.894;15.542;2024-02-04T12:18:52;16.80;92.90
11569;DHT22;5840;46.894;15.542;2024-02-04T12:26:23;16.70;93.20
11569;DHT22;5840;46.894;15.542;2024-02-04T12:28:50;16.90;94.00
11569;DHT22;5840;46.894;15.542;2024-02-04T12:31:17;17.00;93.10
11569;DHT22;5840;46.894;15.542;2024-02-04T12:33:52;17.20;92.90
11569;DHT22;5840;46.894;15.542;2024-02-04T12:36:19;17.20;90.80
11569;DHT22;5840;46.894;15.542;2024-02-04T12:38:50;17.10;91.30
11569;DHT22;5840;46.894;15.542;2024-02-04T12:41:17;17.00;90.60
11569;DHT22;5840;46.894;15.542;2024-02-04T12:43:50;16.90;91.20
11569;DHT22;5840;46.894;15.542;2024-02-04T12:53:33;17.10;91.30
11569;DHT22;5840;46.894;15.542;2024-02-04T12:56:00;17.20;91.00
11569;DHT22;5840;46.894;15.542;2024-02-04T12:58:26;17.10;90.80
11569;DHT22;5840;46.894;15.542;2024-02-04T13:01:00;16.90;90.80
11569;DHT22;5840;46.894;15.542;2024-02-04T13:03:26;16.90;91.00
11569;DHT22;5840;46.894;15.542;2024-02-04T13:05:57;16.90;91.20
11569;DHT22;5840;46.894;15.542;2024-02-04T13:08:24;17.10;91.60
11569;DHT22;5840;46.894;15.542;2024-02-04T13:18:54;17.30;88.70
11569;DHT22;5840;46.894;15.542;2024-02-04T13:21:20;17.30;90.30
11569;DHT22;5840;46.894;15.542;2024-02-04T13:23:47;17.20;90.30
11569;DHT22;5840;46.894;15.542;2024-02-04T13:26:15;17.10;90.10
11569;DHT22;5840;46.894;15.542;2024-02-04T13:28:41;17.00;90.20
11569;DHT22;5840;46.894;15.542;2024-02-04T13:31:08;16.90;88.80
11569;DHT22;5840;46.894;15.542;2024-02-04T13:33:34;16.80;90.10
11569;DHT22;5840;46.894;15.542;2024-02-04T13:36:01;16.70;90.00
11569;DHT22;5840;46.894;15.542;2024-02-04T13:43:31;16.90;90.50
11569;DHT22;5840;46.894;15.542;2024-02-04T13:45:59;17.00;88.00
11569;DHT22;5840;46.894;15.542;2024-02-04T13:48:25;17.00;89.00
11569;DHT22;5840;46.894;15.542;2024-02-04T13:50:51;17.00;89.10
11569;DHT22;5840;46.894;15.542;2024-02-04T13:53:19;16.80;90.00
11569;DHT22;5840;46.894;15.542;2024-02-04T13:55:46;16.70;90.60
11569;DHT22;5840;46.894;15.542;2024-02-04T13:58:12;16.70;90.90
11569;DHT22;5840;46.894;15.542;2024-02-04T14:00:39;16.80;90.80
11569;DHT22;5840;46.894;15.542;2024-02-04T14:08:08;16.70;89.90
11569;DHT22;5840;46.894;15.542;2024-02-04T14:10:35;16.70;89.70
11569;DHT22;5840;46.894;15.542;2024-02-04T14:13:02;16.70;90.70
11569;DHT22;5840;46.894;15.542;2024-02-04T14:15:28;16.50;91.00
11569;DHT22;5840;46.894;15.542;2024-02-04T14:17:56;16.60;91.00
11569;DHT22;5840;46.894;15.542;2024-02-04T14:22:48;16.70;89.80
11569;DHT22;5840;46.894;15.542;2024-02-04T14:28:35;16.80;90.60
11569;DHT22;5840;46.894;15.542;2024-02-04T14:31:06;16.90;89.80
11569;DHT22;5840;46.894;15.542;2024-02-04T14:33:33;16.90;90.20
11569;DHT22;5840;46.894;15.542;2024-02-04T14:35:59;16.90;89.40
11569;DHT22;5840;46.894;15.542;2024-02-04T14:38:26;16.90;88.50
11569;DHT22;5840;46.894;15.542;2024-02-04T14:40:52;16.70;90.10
11569;DHT22;5840;46.894;15.542;2024-02-04T14:43:18;16.60;90.70
11569;DHT22;5840;46.894;15.542;2024-02-04T14:45:48;16.50;91.20
11569;DHT22;5840;46.894;15.542;2024-02-04T14:55:38;16.40;91.30
11569;DHT22;5840;46.894;15.542;2024-02-04T14:58:04;16.20;90.80
11569;DHT22;5840;46.894;15.542;2024-02-04T15:00:30;16.20;90.40
11569;DHT22;5840;46.894;15.542;2024-02-04T15:02:58;16.10;91.00
11569;DHT22;5840;46.894;15.542;2024-02-04T15:05:25;16.10;91.50
11569;DHT22;5840;46.894;15.542;2024-02-04T15:07:51;16.10;91.30
11569;DHT22;5840;46.894;15.542;2024-02-04T15:10:17;16.00;91.20
11569;DHT22;5840;46.894;15.542;2024-02-04T15:12:45;15.90;91.70
11569;DHT22;5840;46.894;15.542;2024-02-04T15:22:41;15.70;92.10
11569;DHT22;5840;46.894;15.542;2024-02-04T15:25:08;15.60;91.90
11569;DHT22;5840;46.894;15.542;2024-02-04T15:27:36;15.40;91.90
11569;DHT22;5840;46.894;15.542;2024-02-04T15:30:03;15.40;91.90
11569;DHT22;5840;46.894;15.542;2024-02-04T15:32:30;15.20;92.00
11569;DHT22;5840;46.894;15.542;2024-02-04T15:34:57;15.20;92.30
11569;DHT22;5840;46.894;15.542;2024-02-04T15:37:23;15.10;92.60
11569;DHT22;5840;46.894;15.542;2024-02-04T15:39:50;14.90;92.70
11569;DHT22;5840;46.894;15.542;2024-02-04T15:47:20;14.60;92.90
11569;DHT22;5840;46.894;15.542;2024-02-04T15:49:49;14.40;93.20
11569;DHT22;5840;46.894;15.542;2024-02-04T15:52:15;14.30;93.40
11569;DHT22;5840;46.894;15.542;2024-02-04T15:54:42;14.10;93.40
11569;DHT22;5840;46.894;15.542;2024-02-04T15:57:09;14.10;93.70
11569;DHT22;5840;46.894;15.542;2024-02-04T15:59:49;13.90;93.90
11569;DHT22;5840;46.894;15.542;2024-02-04T16:02:16;13.80;94.00
11569;DHT22;5840;46.894;15.542;2024-02-04T16:07:22;13.70;94.20
11569;DHT22;5840;46.894;15.542;2024-02-04T16:09:49;13.60;94.50
11569;DHT22;5840;46.894;15.542;2024-02-04T16:12:17;13.40;94.60
11569;DHT22;5840;46.894;15.542;2024-02-04T16:14:45;13.40;94.80
11569;DHT22;5840;46.894;15.542;2024-02-04T16:17:14;13.30;94.90
11569;DHT22;5840;46.894;15.542;2024-02-04T16:19:43;13.20;95.00
11569;DHT22;5840;46.894;15.542;2024-02-04T16:22:09;13.20;95.20
11569;DHT22;5840;46.894;15.542;2024-02-04T16:24:36;13.10;95.30
11569;DHT22;5840;46.894;15.542;2024-02-04T16:32:06;13.00;95.50
11569;DHT22;5840;46.894;15.542;2024-02-04T16:34:32;12.90;95.80
11569;DHT22;5840;46.894;15.542;2024-02-04T16:37:00;12.90;96.00
11569;DHT22;5840;46.894;15.542;2024-02-04T16:39:28;12.90;96.00
11569;DHT22;5840;46.894;15.542;2024-02-04T16:41:54;12.80;96.20
11569;DHT22;5840;46.894;15.542;2024-02-04T16:44:20;12.70;96.20
11569;DHT22;5840;46.894;15.542;2024-02-04T16:46:47;12.70;96.40
11569;DHT22;5840;46.894;15.542;2024-02-04T16:49:14;12.60;96.50
11569;DHT22;5840;46.894;15.542;2024-02-04T16:59:09;12.00;97.50
11569;DHT22;5840;46.894;15.542;2024-02-04T17:01:35;12.20;97.40
11569;DHT22;5840;46.894;15.542;2024-02-04T17:04:01;12.10;97.30
11569;DHT22;5840;46.894;15.542;2024-02-04T17:06:28;11.80;97.60
11569;DHT22;5840;46.894;15.542;2024-02-04T17:11:24;11.50;98.50
11569;DHT22;5840;46.894;15.542;2024-02-04T17:13:52;11.60;98.50
11569;DHT22;5840;46.894;15.542;2024-02-04T17:16:25;11.70;98.20
11569;DHT22;5840;46.894;15.542;2024-02-04T17:24:15;11.20;98.50
11569;DHT22;5840;46.894;15.542;2024-02-04T17:26:46;11.30;99.00
11569;DHT22;5840;46.894;15.542;2024-02-04T17:29:14;11.30;98.80
11569;DHT22;5840;46.894;15.542;2024-02-04T17:31:41;11.30;98.80
11569;DHT22;5840;46.894;15.542;2024-02-04T17:34:08;11.40;98.80
11569;DHT22;5840;46.894;15.542;2024-02-04T17:36:34;11.40;98.80
11569;DHT22;5840;46.894;15.542;2024-02-04T17:39:02;11.40;98.90
11569;DHT22;5840;46.894;15.542;2024-02-04T17:41:31;11.50;99.00
11569;DHT22;5840;46.894;15.542;2024-02-04T17:49:00;11.40;99.00
11569;DHT22;5840;46.894;15.542;2024-02-04T17:51:27;11.50;98.90
11569;DHT22;5840;46.894;15.542;2024-02-04T17:53:54;11.40;99.00
11569;DHT22;5840;46.894;15.542;2024-02-04T17:56:20;11.30;99.10
11569;DHT22;5840;46.894;15.542;2024-02-04T17:58:47;11.30;99.30
11569;DHT22;5840;46.894;15.542;2024-02-04T18:01:18;11.20;99.30
11569;DHT22;5840;46.894;15.542;2024-02-04T18:03:45;11.10;99.80
11569;DHT22;5840;46.894;15.542;2024-02-04T18:06:12;11.20;99.30
11569;DHT22;5840;46.894;15.542;2024-02-04T18:16:07;11.00;99.60
11569;DHT22;5840;46.894;15.542;2024-02-04T18:18:33;11.00;99.60
11569;DHT22;5840;46.894;15.542;2024-02-04T18:21:00;11.00;99.70
11569;DHT22;5840;46.894;15.542;2024-02-04T18:23:26;11.00;99.60
11569;DHT22;5840;46.894;15.542;2024-02-04T18:25:52;11.00;99.70
11569;DHT22;5840;46.894;15.542;2024-02-04T18:28:18;11.00;99.70
11569;DHT22;5840;46.894;15.542;2024-02-04T18:30:47;10.90;99.70
11569;DHT22;5840;46.894;15.542;2024-02-04T18:33:15;10.90;99.80
11569;DHT22;5840;46.894;15.542;2024-02-04T18:43:06;10.90;99.80
11569;DHT22;5840;46.894;15.542;2024-02-04T18:45:32;10.70;99.90
11569;DHT22;5840;46.894;15.542;2024-02-04T18:47:58;10.60;99.90
11569;DHT22;5840;46.894;15.542;2024-02-04T18:50:24;10.50;99.90
11569;DHT22;5840;46.894;15.542;2024-02-04T18:52:52;10.40;99.90
11569;DHT22;5840;46.894;15.542;2024-02-04T18:55:18;10.40;99.90
11569;DHT22;5840;46.894;15.542;2024-02-04T18:57:45;10.40;99.90
11569;DHT22;5840;46.894;15.542;2024-02-04T19:00:14;10.40;99.90
11569;DHT22;5840;46.894;15.542;2024-02-04T19:10:09;10.40;99.90
11569;DHT22;5840;46.894;15.542;2024-02-04T19:12:35;10.30;99.90
11569;DHT22;5840;46.894;15.542;2024-02-04T19:15:05;10.30;99.90
11569;DHT22;5840;46.894;15.542;2024-02-04T19:17:31;10.10;99.90
11569;DHT22;5840;46.894;15.542;2024-02-04T19:19:59;9.90;99.90
11569;DHT22;5840;46.894;15.542;2024-02-04T19:22:27;9.80;99.90
11569;DHT22;5840;46.894;15.542;2024-02-04T19:24:55;9.70;99.90
11569;DHT22;5840;46.894;15.542;2024-02-04T19:27:22;9.60;99.90
11569;DHT22;5840;46.894;15.542;2024-02-04T19:37:16;9.50;99.90
11569;DHT22;5840;46.894;15.542;2024-02-04T19:39:43;9.60;99.90
11569;DHT22;5840;46.894;15.542;2024-02-04T19:42:10;9.50;99.90
11569;DHT22;5840;46.894;15.542;2024-02-04T19:44:36;9.50;99.90
11569;DHT22;5840;46.894;15.542;2024-02-04T19:47:03;9.40;99.90
11569;DHT22;5840;46.894;15.542;2024-02-04T19:49:29;9.40;99.90
11569;DHT22;5840;46.894;15.542;2024-02-04T19:51:56;9.40;99.90
11569;DHT22;5840;46.894;15.542;2024-02-04T19:54:26;9.40;99.90
11569;DHT22;5840;46.894;15.542;2024-02-04T20:04:21;9.70;99.90
11569;DHT22;5840;46.894;15.542;2024-02-04T20:06:47;9.70;99.90
11569;DHT22;5840;46.894;15.542;2024-02-04T20:09:13;9.60;99.90
11569;DHT22;5840;46.894;15.542;2024-02-04T20:11:41;9.60;99.90
11569;DHT22;5840;46.894;15.542;2024-02-04T20:14:07;9.40;99.90
11569;DHT22;5840;46.894;15.542;2024-02-04T20:16:34;9.30;99.90
11569;DHT22;5840;46.894;15.542;2024-02-04T20:19:00;9.20;99.90
11569;DHT22;5840;46.894;15.542;2024-02-04T20:21:28;9.10;99.90
11569;DHT22;5840;46.894;15.542;2024-02-04T20:31:22;9.10;99.90
11569;DHT22;5840;46.894;15.542;2024-02-04T20:33:49;8.90;99.90
11569;DHT22;5840;46.894;15.542;2024-02-04T20:36:15;8.80;99.90
11569;DHT22;5840;46.894;15.542;2024-02-04T20:38:42;8.80;99.90
11569;DHT22;5840;46.894;15.542;2024-02-04T20:41:08;8.90;99.90
11569;DHT22;5840;46.894;15.542;2024-02-04T20:43:35;9.00;99.90
11569;DHT22;5840;46.894;15.542;2024-02-04T20:46:03;8.90;99.90
11569;DHT22;5840;46.894;15.542;2024-02-04T20:48:33;9.10;99.90